createdAt,value
2019-05-17T00:01:42.563Z,15.77
2019-05-17T00:04:19.507Z,16.10
2019-05-17T00:06:56.939Z,20.13
2019-05-17T00:09:30.022Z,17.30
2019-05-17T00:12:03.784Z,17.17
2019-05-17T00:14:36.758Z,16.23
2019-05-17T00:17:08.477Z,19.27
2019-05-17T00:19:41.959Z,16.97
2019-05-17T00:22:18.474Z,19.70
2019-05-17T00:24:52.843Z,19.10
2019-05-17T00:27:31.111Z,17.20
2019-05-17T00:30:03.748Z,17.63
2019-05-17T00:32:37.072Z,19.30
2019-05-17T00:35:11.656Z,17.67
2019-05-17T00:37:47.431Z,19.87
2019-05-17T00:40:26.970Z,17.33
2019-05-17T00:43:03.203Z,17.17
2019-05-17T00:45:37.729Z,16.67
2019-05-17T00:48:11.797Z,18.90
2019-05-17T00:50:52.468Z,18.33
2019-05-17T00:53:21.833Z,15.83
2019-05-17T00:55:57.322Z,17.23
2019-05-17T00:58:32.305Z,18.53
2019-05-17T01:01:08.218Z,17.27
2019-05-17T01:03:41.635Z,15.83
2019-05-17T01:06:16.786Z,17.67
2019-05-17T01:09:00.993Z,18.53
2019-05-17T01:11:29.114Z,18.57
2019-05-17T01:14:01.903Z,19.87
2019-05-17T01:16:40.261Z,21.63
2019-05-17T01:19:20.285Z,19.93
2019-05-17T01:21:52.788Z,18.57
2019-05-17T01:24:29.253Z,18.60
2019-05-17T01:27:03.452Z,19.90
2019-05-17T01:29:36.975Z,18.90
2019-05-17T01:32:10.548Z,19.60
2019-05-17T01:34:46.890Z,19.17
2019-05-17T01:37:20.457Z,19.70
2019-05-17T01:39:54.160Z,17.83
2019-05-17T01:42:27.309Z,17.43
2019-05-17T01:45:01.895Z,20.10
2019-05-17T01:47:36.811Z,16.07
2019-05-17T01:50:17.460Z,18.80
2019-05-17T01:52:51.721Z,17.33
2019-05-17T01:55:26.591Z,16.13
2019-05-17T01:58:00.320Z,17.83
2019-05-17T02:00:33.797Z,19.07
2019-05-17T02:03:07.676Z,18.20
2019-05-17T02:05:44.498Z,18.27
2019-05-17T02:08:21.975Z,18.83
2019-05-17T02:10:57.437Z,18.20
2019-05-17T02:13:33.723Z,19.27
2019-05-17T02:16:07.193Z,18.10
2019-05-17T02:18:40.574Z,18.43
2019-05-17T02:21:13.527Z,20.37
2019-05-17T02:23:46.981Z,19.97
2019-05-17T02:26:19.972Z,19.07
2019-05-17T02:28:53.711Z,19.23
2019-05-17T02:31:27.215Z,18.63
2019-05-17T02:34:02.795Z,20.77
2019-05-17T02:36:35.195Z,21.10
2019-05-17T02:39:13.128Z,18.50
2019-05-17T02:41:44.394Z,18.87
2019-05-17T02:44:15.832Z,19.10
2019-05-17T02:46:47.227Z,20.83
2019-05-17T02:49:18.159Z,21.43
2019-05-17T02:51:52.554Z,18.50
2019-05-17T02:54:23.595Z,22.07
2019-05-17T02:56:55.660Z,20.27
2019-05-17T02:59:43.332Z,20.37
2019-05-17T03:02:13.531Z,20.17
2019-05-17T03:04:44.898Z,19.37
2019-05-17T03:07:15.937Z,18.23
2019-05-17T03:09:47.194Z,21.00
2019-05-17T03:12:18.628Z,17.40
2019-05-17T03:14:52.646Z,20.10
2019-05-17T03:17:23.108Z,19.83
2019-05-17T03:19:53.917Z,19.90
2019-05-17T03:22:25.273Z,20.13
2019-05-17T03:24:56.857Z,19.00
2019-05-17T03:27:28.149Z,18.30
2019-05-17T03:30:07.583Z,18.23
2019-05-17T03:32:39.555Z,20.07
2019-05-17T03:35:16.539Z,17.27
2019-05-17T03:37:43.922Z,17.83
2019-05-17T03:40:35.074Z,17.30
2019-05-17T03:42:48.986Z,17.63
2019-05-17T03:45:22.863Z,15.47
2019-05-17T03:47:53.479Z,16.20
2019-05-17T03:50:25.570Z,17.67
2019-05-17T03:52:57.187Z,16.80
2019-05-17T03:55:28.251Z,18.07
2019-05-17T03:58:02.881Z,16.37
2019-05-17T04:00:35.423Z,20.87
2019-05-17T04:03:05.474Z,22.80
2019-05-17T04:05:43.026Z,22.70
2019-05-17T04:10:48.058Z,22.23
2019-05-17T04:13:22.727Z,21.20
2019-05-17T04:15:53.613Z,20.57
2019-05-17T04:18:26.192Z,20.23
2019-05-17T04:20:58.408Z,21.63
2019-05-17T04:23:33.910Z,19.00
2019-05-17T04:26:04.269Z,21.57
2019-05-17T04:28:35.999Z,17.13
2019-05-17T04:31:07.908Z,19.07
2019-05-17T04:33:42.613Z,19.80
2019-05-17T04:36:24.430Z,22.73
2019-05-17T04:38:56.028Z,19.93
2019-05-17T04:41:41.522Z,17.97
2019-05-17T04:44:06.034Z,19.10
2019-05-17T04:46:39.157Z,18.87
2019-05-17T04:49:24.235Z,18.43
2019-05-17T04:51:55.333Z,20.10
2019-05-17T04:54:26.960Z,18.33
2019-05-17T04:56:58.344Z,17.87
2019-05-17T04:59:33.900Z,18.90
2019-05-17T05:02:03.466Z,19.00
2019-05-17T05:04:38.506Z,20.73
2019-05-17T05:07:08.337Z,17.77
2019-05-17T05:09:42.991Z,16.57
2019-05-17T05:12:13.718Z,21.33
2019-05-17T05:14:45.338Z,18.13
2019-05-17T05:17:16.788Z,21.93
2019-05-17T05:19:48.459Z,19.50
2019-05-17T05:22:22.350Z,19.80
2019-05-17T05:24:54.589Z,19.43
2019-05-17T05:27:25.777Z,17.53
2019-05-17T05:29:56.737Z,18.03
2019-05-17T05:32:28.387Z,17.80
2019-05-17T05:34:59.013Z,17.63
2019-05-17T05:37:32.981Z,17.00
2019-05-17T05:40:03.037Z,17.40
2019-05-17T05:42:34.687Z,18.20
2019-05-17T05:45:05.413Z,16.70
2019-05-17T05:47:36.996Z,17.33
2019-05-17T05:50:08.336Z,16.43
2019-05-17T05:52:42.402Z,17.03
2019-05-17T05:55:13.705Z,17.83
2019-05-17T05:57:44.595Z,17.10
2019-05-17T06:00:16.708Z,17.30
2019-05-17T06:02:48.179Z,22.13
2019-05-17T06:05:21.789Z,18.10
2019-05-17T06:07:52.829Z,16.20
2019-05-17T06:10:23.549Z,18.53
2019-05-17T06:12:54.609Z,16.60
2019-05-17T06:15:25.198Z,17.97
2019-05-17T06:17:56.066Z,17.63
2019-05-17T06:20:27.881Z,16.43
2019-05-17T06:22:59.174Z,19.23
2019-05-17T06:25:33.776Z,16.73
2019-05-17T06:28:03.348Z,19.03
2019-05-17T06:30:34.705Z,16.77
2019-05-17T06:33:05.678Z,18.17
2019-05-17T06:35:39.235Z,17.73
2019-05-17T06:38:12.096Z,17.53
2019-05-17T06:40:43.021Z,18.30
2019-05-17T06:43:14.337Z,18.83
2019-05-17T06:45:52.034Z,17.50
2019-05-17T06:48:22.732Z,18.83
2019-05-17T06:50:53.687Z,18.53
2019-05-17T06:53:25.601Z,18.07
2019-05-17T06:55:56.602Z,18.43
2019-05-17T06:58:28.467Z,17.43
2019-05-17T07:01:00.009Z,18.67
2019-05-17T07:03:31.107Z,17.57
2019-05-17T07:06:03.752Z,18.63
2019-05-17T07:08:35.330Z,17.63
2019-05-17T07:11:06.953Z,20.77
2019-05-17T07:13:39.557Z,16.07
2019-05-17T07:16:11.170Z,17.73
2019-05-17T07:18:49.373Z,20.60
2019-05-17T07:21:20.840Z,17.37
2019-05-17T07:23:52.441Z,17.97
2019-05-17T07:26:23.348Z,19.17
2019-05-17T07:28:54.926Z,18.40
2019-05-17T07:31:26.913Z,17.53
2019-05-17T07:33:59.825Z,20.13
2019-05-17T07:36:31.638Z,17.17
2019-05-17T07:39:03.891Z,18.53
2019-05-17T07:41:35.605Z,20.83
2019-05-17T07:44:09.772Z,19.10
2019-05-17T07:46:40.402Z,18.93
2019-05-17T07:49:11.398Z,18.57
2019-05-17T07:51:43.062Z,19.77
2019-05-17T07:54:13.986Z,19.93
2019-05-17T07:56:45.536Z,20.30
2019-05-17T07:59:16.902Z,19.10
2019-05-17T08:01:50.319Z,18.30
2019-05-17T08:04:21.334Z,19.00
2019-05-17T08:06:52.676Z,19.07
2019-05-17T08:09:24.141Z,19.07
2019-05-17T08:11:55.399Z,17.00
2019-05-17T08:14:30.218Z,21.03
2019-05-17T08:16:59.945Z,17.50
2019-05-17T08:19:30.954Z,17.40
2019-05-17T08:22:02.546Z,21.17
2019-05-17T08:24:34.137Z,16.97
2019-05-17T08:27:05.312Z,16.23
2019-05-17T08:29:37.347Z,17.23
2019-05-17T08:32:09.585Z,18.23
2019-05-17T08:34:41.679Z,15.32
2019-05-17T08:37:13.412Z,15.08
2019-05-17T08:39:44.685Z,17.00
2019-05-17T08:42:15.948Z,17.73
2019-05-17T08:44:49.672Z,16.93
2019-05-17T08:47:20.857Z,15.98
2019-05-17T08:49:52.823Z,17.57
2019-05-17T08:52:24.925Z,16.50
2019-05-17T08:54:55.858Z,17.98
2019-05-17T08:57:26.650Z,16.05
2019-05-17T09:00:00.510Z,16.82
2019-05-17T09:02:30.487Z,16.02
2019-05-17T09:05:01.157Z,18.90
2019-05-17T09:07:33.123Z,21.20
2019-05-17T09:10:06.006Z,18.37
2019-05-17T09:12:37.315Z,21.17
2019-05-17T09:15:10.060Z,17.37
2019-05-17T09:17:41.282Z,19.23
2019-05-17T09:20:12.624Z,16.10
2019-05-17T09:22:44.082Z,17.20
2019-05-17T09:25:19.048Z,18.60
2019-05-17T09:28:00.757Z,19.40
2019-05-17T09:30:31.944Z,19.27
2019-05-17T09:33:03.563Z,16.37
2019-05-17T09:35:35.355Z,17.47
2019-05-17T09:38:06.983Z,18.77
2019-05-17T09:40:40.263Z,18.40
2019-05-17T09:43:10.924Z,15.28
2019-05-17T09:45:42.712Z,14.10
2019-05-17T09:48:13.743Z,13.20
2019-05-17T09:50:46.292Z,12.40
2019-05-17T09:53:19.960Z,12.82
2019-05-17T09:55:51.109Z,11.93
2019-05-17T09:58:22.121Z,13.45
2019-05-17T10:00:53.569Z,10.38
2019-05-17T10:03:24.864Z,11.43
2019-05-17T10:05:55.944Z,10.35
2019-05-17T10:08:26.943Z,12.70
2019-05-17T10:11:06.047Z,8.95
2019-05-17T10:13:31.577Z,11.65
2019-05-17T10:16:10.212Z,11.00
2019-05-17T10:18:41.905Z,9.55
2019-05-17T10:21:12.231Z,9.90
2019-05-17T10:23:43.859Z,10.40
2019-05-17T10:26:15.637Z,10.08
2019-05-17T10:28:46.564Z,13.72
2019-05-17T10:31:19.615Z,12.55
2019-05-17T10:33:51.206Z,10.88
2019-05-17T10:36:22.261Z,12.43
2019-05-17T10:38:53.569Z,12.53
2019-05-17T10:41:24.229Z,12.90
2019-05-17T10:43:56.288Z,12.90
2019-05-17T10:46:29.828Z,15.80
2019-05-17T10:49:01.044Z,12.47
2019-05-17T10:51:32.633Z,12.45
2019-05-17T10:54:04.515Z,13.32
2019-05-17T10:56:36.246Z,14.03
2019-05-17T10:59:09.851Z,13.88
2019-05-17T11:01:40.697Z,12.33
2019-05-17T11:04:11.338Z,11.80
2019-05-17T11:06:42.625Z,12.98
2019-05-17T11:09:14.552Z,12.47
2019-05-17T11:11:46.260Z,11.33
2019-05-17T11:14:17.261Z,9.58
2019-05-17T11:16:48.584Z,14.28
2019-05-17T11:19:20.181Z,10.63
2019-05-17T11:21:51.856Z,10.40
2019-05-17T11:24:23.199Z,11.18
2019-05-17T11:26:54.435Z,10.93
2019-05-17T11:29:25.355Z,10.05
2019-05-17T11:31:57.056Z,11.83
2019-05-17T11:34:29.099Z,10.48
2019-05-17T11:37:00.585Z,10.53
2019-05-17T11:39:32.463Z,8.40
2019-05-17T11:42:04.516Z,8.75
2019-05-17T11:44:36.507Z,9.05
2019-05-17T11:47:07.460Z,8.20
2019-05-17T11:49:38.991Z,8.85
2019-05-17T11:52:10.675Z,8.85
2019-05-17T11:54:45.387Z,8.03
2019-05-17T11:57:16.660Z,8.23
2019-05-17T11:59:48.286Z,8.00
2019-05-17T12:02:21.603Z,8.50
2019-05-17T12:04:53.246Z,9.83
2019-05-17T12:07:24.580Z,7.47
2019-05-17T12:09:55.967Z,5.85
2019-05-17T12:12:42.485Z,6.62
2019-05-17T12:15:14.111Z,8.43
2019-05-17T12:17:54.028Z,7.70
2019-05-17T12:20:25.219Z,6.72
2019-05-17T12:22:56.981Z,7.85
2019-05-17T12:25:28.247Z,6.50
2019-05-17T12:27:59.568Z,7.33
2019-05-17T12:30:30.565Z,6.42
2019-05-17T12:33:02.332Z,7.45
2019-05-17T12:35:33.079Z,5.70
2019-05-17T12:38:04.956Z,5.80
2019-05-17T12:40:36.720Z,4.22
2019-05-17T12:43:07.802Z,5.87
2019-05-17T12:45:38.493Z,5.47
2019-05-17T12:48:15.352Z,5.75
2019-05-17T12:50:46.907Z,5.30
2019-05-17T12:53:18.079Z,4.28
2019-05-17T12:55:49.322Z,4.40
2019-05-17T12:58:20.746Z,5.15
2019-05-17T13:00:52.492Z,4.80
2019-05-17T13:03:23.153Z,5.20
2019-05-17T13:05:54.018Z,5.97
2019-05-17T13:08:25.400Z,3.95
2019-05-17T13:10:56.569Z,4.50
2019-05-17T13:13:27.804Z,7.55
2019-05-17T13:16:17.312Z,3.12
2019-05-17T13:18:39.870Z,2.85
2019-05-17T13:21:10.568Z,3.87
2019-05-17T13:23:41.719Z,2.52
2019-05-17T13:26:13.282Z,2.45
2019-05-17T13:28:45.241Z,2.45
2019-05-17T13:31:16.708Z,2.65
2019-05-17T13:33:50.043Z,2.95
2019-05-17T13:36:22.131Z,3.20
2019-05-17T13:38:53.380Z,4.72
2019-05-17T13:41:24.616Z,3.52
2019-05-17T13:43:55.647Z,4.05
2019-05-17T13:46:33.325Z,2.70
2019-05-17T13:49:24.119Z,3.47
2019-05-17T13:52:04.942Z,4.53
2019-05-17T13:54:36.891Z,3.40
2019-05-17T13:57:11.162Z,3.62
2019-05-17T13:59:41.585Z,3.83
2019-05-17T14:02:13.215Z,3.87
2019-05-17T14:04:45.354Z,3.33
2019-05-17T14:07:19.612Z,3.20
2019-05-17T14:09:51.344Z,3.58
2019-05-17T14:12:22.923Z,3.15
2019-05-17T14:14:54.777Z,3.05
2019-05-17T14:17:26.353Z,2.60
2019-05-17T14:19:57.521Z,4.28
2019-05-17T14:22:28.902Z,3.35
2019-05-17T14:25:01.338Z,3.72
2019-05-17T14:27:32.587Z,3.33
2019-05-17T14:30:03.891Z,4.17
2019-05-17T14:32:36.239Z,3.30
2019-05-17T14:35:07.547Z,4.10
2019-05-17T14:37:39.873Z,3.72
2019-05-17T14:40:11.300Z,3.60
2019-05-17T14:42:43.122Z,3.02
2019-05-17T14:45:14.528Z,2.40
2019-05-17T14:47:45.965Z,3.02
2019-05-17T14:50:17.728Z,2.02
2019-05-17T14:52:51.321Z,4.00
2019-05-17T14:55:23.427Z,3.05
2019-05-17T14:57:54.712Z,2.62
2019-05-17T15:00:25.958Z,3.17
2019-05-17T15:02:57.882Z,2.83
2019-05-17T15:05:29.263Z,2.33
2019-05-17T15:08:00.603Z,4.83
2019-05-17T15:10:32.049Z,3.92
2019-05-17T15:13:02.811Z,3.35
2019-05-17T15:15:34.779Z,2.62
2019-05-17T15:18:09.271Z,2.85
2019-05-17T15:20:39.193Z,5.10
2019-05-17T15:23:15.148Z,3.45
2019-05-17T15:25:47.391Z,2.83
2019-05-17T15:28:19.570Z,2.25
2019-05-17T15:30:51.092Z,2.42
2019-05-17T15:33:24.469Z,2.42
2019-05-17T15:35:56.222Z,2.83
2019-05-17T15:38:27.324Z,2.87
2019-05-17T15:41:09.907Z,2.40
2019-05-17T15:43:42.907Z,4.45
2019-05-17T15:46:14.486Z,2.60
2019-05-17T15:48:45.466Z,3.08
2019-05-17T15:51:17.023Z,4.35
2019-05-17T15:53:48.462Z,4.58
2019-05-17T15:56:48.093Z,3.87
2019-05-17T15:59:20.034Z,3.85
2019-05-17T16:01:51.786Z,4.12
2019-05-17T16:04:23.291Z,2.15
2019-05-17T16:06:54.687Z,3.22
2019-05-17T16:09:26.182Z,3.92
2019-05-17T16:11:58.004Z,1.62
2019-05-17T16:14:29.649Z,3.33
2019-05-17T16:17:00.702Z,3.47
2019-05-17T16:19:32.058Z,4.20
2019-05-17T16:22:03.394Z,3.15
2019-05-17T16:24:35.517Z,3.98
2019-05-17T16:27:16.433Z,2.92
2019-05-17T16:29:47.668Z,4.30
2019-05-17T16:32:19.729Z,3.27
2019-05-17T16:34:51.055Z,4.47
2019-05-17T16:37:22.846Z,7.60
2019-05-17T16:39:54.528Z,8.70
2019-05-17T16:42:46.361Z,6.20
2019-05-17T16:45:19.850Z,7.95
2019-05-17T16:47:51.698Z,6.60
2019-05-17T16:50:22.621Z,15.35
2019-05-17T16:53:05.611Z,5.70
2019-05-17T16:55:59.470Z,6.35
2019-05-17T16:58:30.897Z,9.33
2019-05-17T17:01:03.556Z,5.50
2019-05-17T17:03:43.688Z,4.30
2019-05-17T17:06:10.319Z,4.62
2019-05-17T17:08:41.025Z,5.55
2019-05-17T17:11:11.926Z,5.40
2019-05-17T17:13:43.467Z,5.67
2019-05-17T17:16:14.793Z,4.90
2019-05-17T17:18:54.150Z,6.10
2019-05-17T17:21:25.605Z,5.73
2019-05-17T17:23:57.260Z,6.10
2019-05-17T17:26:29.247Z,6.33
2019-05-17T17:28:59.993Z,5.93
2019-05-17T17:31:31.612Z,6.63
2019-05-17T17:34:03.274Z,5.20
2019-05-17T17:36:34.287Z,4.83
2019-05-17T17:39:06.792Z,6.00
2019-05-17T17:41:37.504Z,6.23
2019-05-17T17:44:08.919Z,7.30
2019-05-17T17:46:39.560Z,6.93
2019-05-17T17:49:11.500Z,5.33
2019-05-17T17:51:42.539Z,4.10
2019-05-17T17:54:32.905Z,5.30
2019-05-17T17:57:04.910Z,5.67
2019-05-17T17:59:35.983Z,5.00
2019-05-17T18:02:07.410Z,7.97
2019-05-17T18:04:39.226Z,7.67
2019-05-17T18:07:10.564Z,9.57
2019-05-17T18:09:41.497Z,7.37
2019-05-17T18:12:12.833Z,12.60
2019-05-17T18:14:44.192Z,6.53
2019-05-17T18:17:15.892Z,5.40
2019-05-17T18:19:56.385Z,4.00
2019-05-17T18:22:27.100Z,6.60
2019-05-17T18:24:58.720Z,7.33
2019-05-17T18:27:30.657Z,8.43
2019-05-17T18:30:01.685Z,4.97
2019-05-17T18:32:32.980Z,4.30
2019-05-17T18:35:03.691Z,4.33
2019-05-17T18:37:52.254Z,9.13
2019-05-17T18:40:24.197Z,4.73
2019-05-17T18:42:55.173Z,3.70
2019-05-17T18:45:27.051Z,4.47
2019-05-17T18:48:03.056Z,4.73
2019-05-17T18:50:34.789Z,20.17
2019-05-17T18:53:13.094Z,19.70
2019-05-17T18:55:47.910Z,4.70
2019-05-17T18:58:26.940Z,7.47
2019-05-17T19:00:59.074Z,8.67
2019-05-17T19:03:32.396Z,4.03
2019-05-17T19:06:04.845Z,4.60
2019-05-17T19:08:36.778Z,7.40
2019-05-17T19:11:08.375Z,7.37
2019-05-17T19:13:40.782Z,6.03
2019-05-17T19:16:12.121Z,6.07
2019-05-17T19:18:43.681Z,5.33
2019-05-17T19:21:15.005Z,5.27
2019-05-17T19:23:46.533Z,4.43
2019-05-17T19:26:17.855Z,6.17
2019-05-17T19:28:49.600Z,5.23
2019-05-17T19:31:22.264Z,5.30
2019-05-17T19:33:53.971Z,4.83
2019-05-17T19:36:25.310Z,5.13
2019-05-17T19:39:17.092Z,4.57
2019-05-17T19:41:48.461Z,4.60
2019-05-17T19:44:20.735Z,4.40
2019-05-17T19:46:52.082Z,4.20
2019-05-17T19:49:29.538Z,4.93
2019-05-17T19:52:16.881Z,4.67
2019-05-17T19:54:52.035Z,3.47
2019-05-17T19:57:24.027Z,4.53
2019-05-17T19:59:55.220Z,3.53
2019-05-17T20:02:30.425Z,4.37
2019-05-17T20:05:03.690Z,6.90
2019-05-17T20:07:38.853Z,3.37
2019-05-17T20:10:17.339Z,3.40
2019-05-17T20:12:48.974Z,5.00
2019-05-17T20:15:33.659Z,3.40
2019-05-17T20:18:00.093Z,3.83
2019-05-17T20:20:38.693Z,4.60
2019-05-17T20:23:17.531Z,3.03
2019-05-17T20:25:55.531Z,3.30
2019-05-17T20:28:36.730Z,5.40
2019-05-17T20:31:12.180Z,4.57
2019-05-17T20:33:55.427Z,3.13
2019-05-17T20:36:38.500Z,3.63
2019-05-17T20:39:18.871Z,5.30
2019-05-17T20:41:57.182Z,2.83
2019-05-17T20:44:27.300Z,4.47
2019-05-17T20:47:02.936Z,3.03
2019-05-17T20:49:33.769Z,3.27
2019-05-17T20:52:06.085Z,2.87
2019-05-17T20:54:37.852Z,3.37
2019-05-17T20:57:09.571Z,3.83
2019-05-17T20:59:51.912Z,3.07
2019-05-17T21:02:24.506Z,2.87
2019-05-17T21:04:59.960Z,8.87
2019-05-17T21:07:32.392Z,2.30
2019-05-17T21:10:06.054Z,3.13
2019-05-17T21:12:40.948Z,3.53
2019-05-17T21:15:13.187Z,3.50
2019-05-17T21:17:47.009Z,2.73
2019-05-17T21:20:42.245Z,3.97
2019-05-17T21:23:17.154Z,3.20
2019-05-17T21:25:48.217Z,3.80
2019-05-17T21:28:19.526Z,3.83
2019-05-17T21:30:50.733Z,2.43
2019-05-17T21:33:22.497Z,3.60
2019-05-17T21:35:54.276Z,3.80
2019-05-17T21:38:31.164Z,3.83
2019-05-17T21:41:02.593Z,2.50
2019-05-17T21:43:34.657Z,3.47
2019-05-17T21:46:09.871Z,3.40
2019-05-17T21:48:43.502Z,3.90
2019-05-17T21:51:17.185Z,6.00
2019-05-17T21:53:48.722Z,3.90
2019-05-17T21:56:24.746Z,3.50
2019-05-17T21:58:56.499Z,3.00
2019-05-17T22:01:36.378Z,3.23
2019-05-17T22:04:08.243Z,4.20
2019-05-17T22:06:49.175Z,3.50
2019-05-17T22:09:29.271Z,3.77
2019-05-17T22:12:10.111Z,4.27
2019-05-17T22:14:44.140Z,5.03
2019-05-17T22:17:24.062Z,6.20
2019-05-17T22:20:01.920Z,5.00
2019-05-17T22:22:42.352Z,4.20
2019-05-17T22:25:21.949Z,5.00
2019-05-17T22:27:59.631Z,3.87
2019-05-17T22:30:35.808Z,4.23
2019-05-17T22:33:14.776Z,4.77
2019-05-17T22:35:46.382Z,4.00
2019-05-17T22:38:17.498Z,4.50
2019-05-17T22:40:49.146Z,4.43
2019-05-17T22:43:20.233Z,4.37
2019-05-17T22:45:51.182Z,4.10
2019-05-17T22:48:23.021Z,5.73
2019-05-17T22:50:54.372Z,3.63
2019-05-17T22:53:25.437Z,3.77
2019-05-17T22:55:56.776Z,4.13
2019-05-17T22:58:28.454Z,4.37
2019-05-17T23:01:00.045Z,3.53
2019-05-17T23:03:31.928Z,5.17
2019-05-17T23:06:02.847Z,4.10
2019-05-17T23:08:34.316Z,4.60
2019-05-17T23:11:38.939Z,4.47
2019-05-17T23:14:10.674Z,4.90
2019-05-17T23:16:50.929Z,5.13
2019-05-17T23:19:15.144Z,6.20
2019-05-17T23:21:46.182Z,3.63
2019-05-17T23:24:17.622Z,4.43
2019-05-17T23:26:48.672Z,5.00
2019-05-17T23:29:20.586Z,4.53
2019-05-17T23:31:52.180Z,4.60
2019-05-17T23:34:23.844Z,5.37
2019-05-17T23:36:55.332Z,4.90
2019-05-17T23:39:47.969Z,4.87
2019-05-17T23:42:19.509Z,5.03
2019-05-17T23:44:50.969Z,4.93
2019-05-17T23:47:22.349Z,4.77
2019-05-17T23:49:53.074Z,4.37
2019-05-17T23:52:24.381Z,5.10
2019-05-17T23:54:55.353Z,6.10
2019-05-17T23:57:25.963Z,4.83
2019-05-17T23:59:57.726Z,6.77
